TimeEST,TemperatureF,Dew PointF,Humidity,Sea Level PressureIn,VisibilityMPH,Wind Direction,Wind SpeedMPH,Gust SpeedMPH,PrecipitationIn,Events,Conditions,WindDirDegrees,DateUTC
12:50 AM,-0.4,-0.4,100,-9999,0.0,West,40.3,-,N/A,Fog-Snow,Light Snow,270,2013-02-06 05:50:00
1:56 AM,1.4,1.4,100,-9999,0.0,West,39.1,44.9,N/A,Fog-Snow,Light Snow,270,2013-02-06 06:56:00
3:56 AM,1.4,1.4,100,-9999,0.0,West,35.7,43.7,N/A,Fog-Snow,Light Snow,270,2013-02-06 08:56:00
4:54 AM,1.4,1.4,100,-9999,0.0,West,41.4,-,N/A,Fog-Snow,Light Snow,270,2013-02-06 09:54:00
5:54 AM,1.4,1.4,100,-9999,0.0,West,41.4,-,N/A,Fog-Snow,Light Snow,270,2013-02-06 10:54:00
6:49 AM,1.4,1.4,100,-9999,0.0,West,41.4,-,N/A,Fog-Snow,Light Snow,270,2013-02-06 11:49:00
7:49 AM,1.4,1.4,100,-9999,0.0,West,35.7,-,N/A,Fog-Snow,Light Snow,270,2013-02-06 12:49:00
8:47 AM,3.2,3.2,100,-9999,0.0,West,41.4,-,N/A,Fog-Snow,Light Snow,280,2013-02-06 13:47:00
9:48 AM,-4.0,-4.0,100,-9999,0.0,West,55.2,-,N/A,Fog-Snow,Light Snow,280,2013-02-06 14:48:00
10:49 AM,5.0,5.0,100,-9999,0.0,West,51.8,-,N/A,Fog-Snow,Blowing Snow,280,2013-02-06 15:49:00
11:49 AM,3.2,3.2,100,-9999,0.0,West,56.4,-,N/A,Fog-Snow,Light Snow,280,2013-02-06 16:49:00
12:51 PM,3.2,3.2,100,-9999,0.0,WNW,70.2,77.1,N/A,Fog-Snow,Light Snow,290,2013-02-06 17:51:00
1:56 PM,3.2,3.2,100,-9999,0.0,West,56.4,65.6,N/A,Fog-Snow,Light Snow,280,2013-02-06 18:56:00
2:57 PM,-0.4,-0.4,100,-9999,0.0,WNW,55.2,66.7,N/A,Fog-Snow,Light Snow,290,2013-02-06 19:57:00
3:53 PM,-0.4,-0.4,100,-9999,0.0,WNW,69.0,74.8,N/A,Fog-Snow,Light Snow,300,2013-02-06 20:53:00
4:55 PM,-4.0,-4.0,100,-9999,0.1,WNW,66.7,81.7,N/A,Fog-Snow,Blowing Snow,290,2013-02-06 21:55:00
5:49 PM,-5.8,-5.8,100,-9999,0.0,WNW,67.9,73.6,N/A,Fog-Snow,Blowing Snow,300,2013-02-06 22:49:00
6:55 PM,-9.4,-16.6,71,-9999,110.0,WNW,76.0,85.2,N/A,,Partly Cloudy,300,2013-02-06 23:55:00
7:56 PM,-13.0,-22.0,64,-9999,120.0,WNW,72.5,86.3,N/A,,Partly Cloudy,290,2013-02-07 00:56:00
8:57 PM,-14.8,-23.8,64,-9999,120.0,WNW,65.6,71.3,N/A,,Partly Cloudy,290,2013-02-07 01:57:00
9:55 PM,-16.6,-27.4,58,-9999,120.0,WNW,70.2,79.4,N/A,,Partly Cloudy,290,2013-02-07 02:55:00
10:58 PM,-16.6,-25.6,64,-9999,120.0,WNW,71.3,82.9,N/A,,Partly Cloudy,300,2013-02-07 03:58:00
11:55 PM,-16.6,-23.8,70,-9999,120.0,WNW,74.8,82.9,N/A,,Partly Cloudy,300,2013-02-07 04:55:00